Time;durP1;ratioP1;P1;durP2;ratioP2;P2;SDS_P1;SDS_P2;PMS_P1;PMS_P2;Temp;Humidity;BMP_temperature;BMP_pressure;BME280_temperature;BME280_humidity;BME280_pressure;Samples;Min_cycle;Max_cycle;Signal;HPM_P1;HPM_P2
2022/01/21 00:01:24;;;;;;;7.80;4.28;;;;;;;-3.45;86.07;97570.95;1690944;84;21459;-76
2022/01/21 00:03:51;;;;;;;6.47;3.52;;;;;;;-3.47;85.96;97577.84;1701731;84;21002;-76
2022/01/21 00:06:19;;;;;;;7.28;3.45;;;;;;;-3.48;85.20;97572.62;1712752;84;21005;-76
2022/01/21 00:08:48;;;;;;;5.70;3.45;;;;;;;-3.51;85.03;97585.50;1712470;84;21018;-76
2022/01/21 00:11:16;;;;;;;9.28;3.58;;;;;;;-3.58;84.87;97595.75;1712611;83;20966;-76
2022/01/21 00:13:43;;;;;;;5.87;2.87;;;;;;;-3.60;84.70;97602.63;1700890;84;21121;-76
2022/01/21 00:16:16;;;;;;;7.58;3.58;;;;;;;-3.66;84.54;97593.41;1688979;85;21126;-76
2022/01/21 00:18:53;;;;;;;7.10;3.55;;;;;;;-3.68;84.46;97596.41;1689025;85;21420;-76
2022/01/21 00:32:14;;;;;;;7.30;3.25;;;;;;;-4.08;83.48;97600.30;1708123;84;21014;-76
2022/01/21 00:34:40;;;;;;;7.70;3.15;;;;;;;-4.20;83.51;97591.84;1693592;84;21033;-76
2022/01/21 00:37:07;;;;;;;7.85;3.30;;;;;;;-4.30;83.12;97607.59;1689073;85;21066;-76
2022/01/21 00:39:35;;;;;;;8.90;3.60;;;;;;;-4.39;83.32;97603.05;1689095;85;21014;-76
2022/01/21 00:42:12;;;;;;;10.68;3.90;;;;;;;-4.43;83.50;97610.72;1688980;85;21381;-77
2022/01/21 00:44:33;;;;;;;11.28;3.83;;;;;;;-4.44;84.01;97616.73;1701224;84;21010;-76
2022/01/21 00:46:59;;;;;;;7.00;3.17;;;;;;;-4.45;83.57;97615.00;1708012;83;21018;-76
2022/01/21 00:49:26;;;;;;;5.67;3.10;;;;;;;-4.48;83.41;97621.38;1701052;84;21481;-77
2022/01/21 00:51:53;;;;;;;7.17;3.02;;;;;;;-4.58;83.17;97621.16;1692120;84;21059;-76
2022/01/21 00:54:21;;;;;;;7.60;2.92;;;;;;;-4.61;83.06;97623.65;1707997;84;21025;-77
2022/01/21 00:56:49;;;;;;;9.30;3.58;;;;;;;-4.71;82.92;97612.62;1707892;84;21409;-76
2022/01/21 00:59:16;;;;;;;8.38;3.67;;;;;;;-4.85;82.59;97617.46;1707984;84;21387;-77
2022/01/21 01:01:42;;;;;;;8.08;3.35;;;;;;;-4.97;82.71;97615.03;1703076;84;21098;-77
2022/01/21 01:04:09;;;;;;;6.42;3.87;;;;;;;-5.08;82.71;97617.73;1683761;85;21058;-77
2022/01/21 01:06:35;;;;;;;7.85;3.40;;;;;;;-5.14;82.78;97616.28;1683798;85;21420;-76
2022/01/21 01:09:03;;;;;;;6.47;3.30;;;;;;;-5.21;82.86;97616.53;1683872;85;21066;-76
2022/01/21 01:11:48;;;;;;;7.25;3.50;;;;;;;-5.28;82.84;97619.36;1686187;84;21409;-76
2022/01/21 01:22:18;;;;;;;6.53;3.40;;;;;;;-5.44;82.88;97632.30;1699143;84;21439;-77
2022/01/21 01:30:05;;;;;;;5.40;3.10;;;;;;;-5.57;82.46;97644.84;1683956;85;21483;-76
2022/01/21 01:32:33;;;;;;;7.87;3.30;;;;;;;-5.64;82.43;97645.92;1686081;84;22125;-77
2022/01/21 01:35:00;;;;;;;6.62;3.02;;;;;;;-5.70;82.70;97641.04;1688048;85;21392;-76
2022/01/21 01:37:46;;;;;;;5.97;3.10;;;;;;;-5.72;82.74;97631.06;1688308;85;21050;-77
2022/01/21 01:40:12;;;;;;;8.08;3.70;;;;;;;-5.73;82.91;97631.05;1685610;84;21073;-76
2022/01/21 01:42:59;;;;;;;5.35;2.80;;;;;;;-5.68;83.01;97629.47;1694855;84;22129;-77
2022/01/21 01:50:38;;;;;;;8.28;3.17;;;;;;;-5.77;82.81;97625.33;1694204;83;21114;-76
2022/01/21 01:53:08;;;;;;;9.20;3.20;;;;;;;-5.80;82.72;97632.57;1631921;88;21037;-76
2022/01/21 01:55:36;;;;;;;8.70;3.77;;;;;;;-5.84;82.69;97634.59;1689138;84;21081;-76
2022/01/21 01:58:03;;;;;;;9.73;3.10;;;;;;;-5.86;82.61;97634.55;1667017;86;21020;-76
2022/01/21 02:00:30;;;;;;;6.33;2.95;;;;;;;-5.88;82.69;97634.03;1667263;86;21080;-76
2022/01/21 02:03:10;;;;;;;7.50;3.37;;;;;;;-5.91;82.64;97630.95;1655883;85;21054;-76
2022/01/21 02:05:38;;;;;;;7.28;3.00;;;;;;;-5.94;82.42;97631.28;1708277;83;21018;-76
2022/01/21 02:08:06;;;;;;;6.83;2.92;;;;;;;-5.94;82.66;97639.02;1705112;84;20989;-76
2022/01/21 02:10:38;;;;;;;8.05;2.87;;;;;;;-5.96;82.41;97639.86;1667139;86;21838;-76
2022/01/21 02:13:17;;;;;;;5.70;2.58;;;;;;;-6.01;82.08;97633.69;1658329;86;21469;-76
2022/01/21 02:15:41;;;;;;;7.75;3.52;;;;;;;-6.06;82.07;97642.14;1711698;83;21430;-76
2022/01/21 02:23:35;;;;;;;6.22;2.70;;;;;;;-6.23;82.01;97630.47;1692415;83;21062;-76
2022/01/21 02:26:04;;;;;;;7.78;2.72;;;;;;;-6.28;82.12;97628.16;1689243;85;21045;-76
2022/01/21 02:28:32;;;;;;;10.10;3.42;;;;;;;-6.30;82.20;97634.09;1683609;84;21120;-76
2022/01/21 02:30:59;;;;;;;6.60;3.08;;;;;;;-6.34;82.14;97628.38;1640376;87;21495;-76
2022/01/21 02:33:27;;;;;;;7.85;3.22;;;;;;;-6.36;82.20;97634.77;1694270;84;21017;-76
2022/01/21 02:35:55;;;;;;;10.15;4.03;;;;;;;-6.34;82.40;97629.27;1694392;85;21447;-76
2022/01/21 02:38:21;;;;;;;6.97;2.77;;;;;;;-6.30;82.48;97634.98;1694635;85;21038;-75
2022/01/21 02:40:48;;;;;;;5.65;2.90;;;;;;;-6.30;82.09;97631.12;1694704;85;21074;-76
2022/01/21 02:43:15;;;;;;;10.03;3.27;;;;;;;-6.35;82.02;97630.10;1705061;84;21419;-76
2022/01/21 02:45:46;;;;;;;6.25;3.12;;;;;;;-6.35;82.21;97624.94;1711209;84;21423;-76
2022/01/21 02:48:11;;;;;;;9.25;3.75;;;;;;;-6.29;82.13;97630.69;1667549;86;21124;-76
2022/01/21 02:50:40;;;;;;;4.83;2.52;;;;;;;-6.23;81.98;97632.19;1708066;83;21044;-76
2022/01/21 02:53:38;;;;;;;8.08;3.15;;;;;;;-6.26;81.99;97634.27;1695881;83;21105;-76
2022/01/21 02:55:54;;;;;;;8.33;3.17;;;;;;;-6.19;81.83;97636.59;1638579;87;21098;-75
2022/01/21 02:58:20;;;;;;;6.95;3.10;;;;;;;-6.16;81.64;97633.23;1691531;85;21564;-76
2022/01/21 03:00:48;;;;;;;8.98;3.20;;;;;;;-6.21;81.44;97634.39;1640423;87;21118;-76
2022/01/21 03:03:15;;;;;;;6.67;2.83;;;;;;;-6.27;81.33;97632.91;1696455;84;20985;-76
2022/01/21 03:05:41;;;;;;;7.62;3.35;;;;;;;-6.32;81.21;97630.61;1707935;84;21505;-76
2022/01/21 03:08:08;;;;;;;5.80;3.10;;;;;;;-6.34;81.34;97634.42;1711248;83;20987;-76
2022/01/21 03:10:35;;;;;;;6.97;2.83;;;;;;;-6.38;81.37;97626.12;1711077;84;21108;-76
2022/01/21 03:13:02;;;;;;;9.28;3.27;;;;;;;-6.42;81.37;97621.30;1663740;86;21044;-76
2022/01/21 03:15:28;;;;;;;9.43;3.42;;;;;;;-6.44;81.33;97616.91;1672076;86;21080;-76
2022/01/21 03:17:55;;;;;;;8.20;2.92;;;;;;;-6.50;81.13;97618.88;1699541;84;20992;-76
2022/01/21 03:20:21;;;;;;;6.75;2.42;;;;;;;-6.55;81.05;97620.43;1683838;84;21085;-76
2022/01/21 03:22:49;;;;;;;5.28;2.62;;;;;;;-6.61;81.15;97628.83;1683705;85;21038;-76
2022/01/21 03:25:16;;;;;;;6.30;2.77;;;;;;;-6.67;80.97;97633.80;1683607;85;21062;-76
2022/01/21 03:27:42;;;;;;;8.93;3.12;;;;;;;-6.76;81.08;97633.94;1694083;84;21044;-76
2022/01/21 03:30:11;;;;;;;5.20;2.83;;;;;;;-6.79;81.24;97637.73;1712766;83;20989;-76
2022/01/21 03:32:39;;;;;;;7.75;3.27;;;;;;;-6.77;80.99;97632.20;1712419;83;21463;-76
2022/01/21 03:35:07;;;;;;;8.28;2.67;;;;;;;-6.76;81.04;97630.08;1712678;83;21089;-76
2022/01/21 03:37:34;;;;;;;10.18;3.52;;;;;;;-6.76;80.99;97623.63;1678372;85;21428;-76
2022/01/21 03:40:03;;;;;;;6.40;2.98;;;;;;;-6.77;80.89;97623.61;1684271;85;21078;-76
2022/01/21 03:42:29;;;;;;;7.78;3.00;;;;;;;-6.78;80.98;97621.84;1688409;84;21428;-76
2022/01/21 03:44:56;;;;;;;8.08;2.85;;;;;;;-6.81;80.93;97623.05;1690956;85;21023;-76
2022/01/21 03:47:23;;;;;;;9.23;2.80;;;;;;;-6.85;80.93;97622.04;1701021;84;21475;-76
2022/01/21 03:49:55;;;;;;;7.83;2.85;;;;;;;-6.89;80.77;97624.08;1712727;83;21052;-76
2022/01/21 03:52:17;;;;;;;6.30;2.42;;;;;;;-6.93;80.88;97622.22;1709443;83;21395;-76
2022/01/21 03:54:44;;;;;;;6.55;2.80;;;;;;;-7.00;80.71;97623.70;1681439;84;21017;-77
2022/01/21 03:57:10;;;;;;;5.72;2.75;;;;;;;-7.03;80.48;97624.88;1697767;83;21069;-76
2022/01/21 03:59:37;;;;;;;6.45;2.98;;;;;;;-7.03;80.85;97632.61;1698773;84;21480;-77
2022/01/21 04:02:06;;;;;;;7.45;3.12;;;;;;;-6.99;81.09;97629.32;1704671;83;20966;-77
2022/01/21 04:04:34;;;;;;;7.58;3.25;;;;;;;-6.93;81.04;97636.39;1713262;84;20989;-76
2022/01/21 04:07:04;;;;;;;8.88;3.42;;;;;;;-6.93;80.59;97627.38;1713167;84;21014;-77
2022/01/21 04:09:32;;;;;;;9.08;4.12;;;;;;;-6.96;80.52;97629.44;1713553;83;21009;-77
2022/01/21 04:12:01;;;;;;;10.25;4.10;;;;;;;-7.04;80.14;97627.89;1651058;86;21171;-76
2022/01/21 04:14:32;;;;;;;9.35;4.62;;;;;;;-7.08;79.99;97634.16;1628701;85;21109;-76
2022/01/21 04:16:57;;;;;;;7.20;3.77;;;;;;;-7.10;80.22;97627.66;1685835;85;21411;-76
2022/01/21 04:19:23;;;;;;;10.18;4.60;;;;;;;-7.14;80.18;97630.98;1626229;87;21071;-76
2022/01/21 04:21:49;;;;;;;15.20;5.33;;;;;;;-7.19;79.68;97622.22;1666338;86;21053;-76
2022/01/21 04:24:16;;;;;;;14.47;5.60;;;;;;;-7.30;78.56;97631.70;1666486;86;21014;-76
2022/01/21 04:26:43;;;;;;;9.40;4.70;;;;;;;-7.35;79.07;97632.38;1666186;86;21032;-77
2022/01/21 04:29:11;;;;;;;12.23;4.75;;;;;;;-7.41;78.82;97630.45;1666123;86;21040;-77
2022/01/21 04:31:40;;;;;;;14.87;5.80;;;;;;;-7.49;79.36;97636.63;1666011;86;21045;-77
2022/01/21 04:34:06;;;;;;;18.48;5.90;;;;;;;-7.53;79.52;97640.33;1666434;86;21104;-77
2022/01/21 04:36:34;;;;;;;13.88;5.75;;;;;;;-7.60;79.06;97641.38;1666455;86;21052;-76
2022/01/21 04:39:04;;;;;;;12.73;5.80;;;;;;;-7.64;79.40;97640.79;1651527;86;21172;-76
2022/01/21 04:49:31;;;;;;;12.53;4.85;;;;;;;-7.60;79.86;97645.66;1659026;86;21817;-75
2022/01/21 04:52:03;;;;;;;11.95;5.20;;;;;;;-7.60;78.37;97649.09;1666355;86;21025;-76
2022/01/21 04:54:44;;;;;;;11.85;5.72;;;;;;;-7.59;78.75;97645.72;1656109;86;21493;-76
2022/01/21 04:57:10;;;;;;;14.05;6.05;;;;;;;-7.58;78.92;97647.87;1664265;86;21501;-76
2022/01/21 04:59:39;;;;;;;14.65;4.87;;;;;;;-7.59;79.21;97661.16;1665529;85;21414;-77
2022/01/21 05:02:06;;;;;;;14.35;4.30;;;;;;;-7.54;79.32;97662.61;1669771;86;21525;-75
2022/01/21 05:04:35;;;;;;;12.13;4.87;;;;;;;-7.53;78.69;97664.78;1671421;86;21009;-75
2022/01/21 05:07:04;;;;;;;12.37;4.75;;;;;;;-7.49;78.00;97668.80;1671458;86;21470;-76
2022/01/21 05:09:32;;;;;;;14.35;5.05;;;;;;;-7.46;78.25;97667.64;1667070;86;21056;-76
2022/01/21 05:12:02;;;;;;;11.43;5.00;;;;;;;-7.46;77.91;97668.03;1647071;86;20986;-76
2022/01/21 05:14:48;;;;;;;12.03;4.83;;;;;;;-7.46;77.50;97659.02;1684360;84;21052;-76
2022/01/21 05:17:04;;;;;;;15.10;4.78;;;;;;;-7.46;77.38;97656.05;1664517;86;21111;-76
2022/01/21 05:19:29;;;;;;;17.35;5.42;;;;;;;-7.47;78.17;97662.42;1693158;83;21027;-76
2022/01/21 05:21:59;;;;;;;14.07;5.50;;;;;;;-7.45;78.29;97668.48;1691438;85;21036;-76
2022/01/21 05:24:29;;;;;;;13.08;5.35;;;;;;;-7.51;78.17;97678.17;1690871;83;21423;-76
2022/01/21 05:26:58;;;;;;;13.25;5.75;;;;;;;-7.53;78.43;97678.51;1691639;85;21507;-76
2022/01/21 05:29:31;;;;;;;11.40;5.15;;;;;;;-7.58;78.31;97672.31;1699165;83;21454;-77
2022/01/21 05:32:02;;;;;;;13.18;5.22;;;;;;;-7.62;78.64;97673.91;1710089;83;21038;-77
2022/01/21 05:34:34;;;;;;;13.43;5.37;;;;;;;-7.62;78.67;97664.91;1709473;83;21512;-77
2022/01/21 05:37:05;;;;;;;13.28;4.83;;;;;;;-7.63;78.81;97662.27;1701389;83;21057;-78
2022/01/21 05:39:34;;;;;;;22.87;8.58;;;;;;;-7.63;78.98;97672.16;1697928;83;20993;-77
2022/01/21 05:42:19;;;;;;;21.25;6.58;;;;;;;-7.64;77.26;97675.53;1691146;84;21021;-77
2022/01/21 05:47:32;;;;;;;20.88;6.08;;;;;;;-7.69;77.85;97680.52;1706521;84;21097;-76
2022/01/21 05:50:04;;;;;;;10.18;5.22;;;;;;;-7.75;77.48;97684.55;1670125;85;21462;-75
2022/01/21 05:52:42;;;;;;;13.95;6.22;;;;;;;-7.84;77.65;97688.95;1565256;92;21102;-77
2022/01/21 05:55:18;;;;;;;17.98;6.37;;;;;;;-7.86;77.85;97695.32;1698765;84;21052;-77
2022/01/21 05:57:53;;;;;;;16.57;6.70;;;;;;;-7.85;78.12;97702.21;1697869;84;20989;-75
2022/01/21 06:00:22;;;;;;;14.98;6.72;;;;;;;-7.84;78.29;97697.95;1728130;83;21013;-75
2022/01/21 06:02:49;;;;;;;13.65;5.97;;;;;;;-7.83;78.42;97715.14;1723218;83;21063;-76
2022/01/21 06:05:16;;;;;;;14.75;6.95;;;;;;;-7.79;78.40;97708.02;1701239;83;21462;-77
2022/01/21 06:07:42;;;;;;;19.02;6.83;;;;;;;-7.72;78.74;97714.27;1704999;83;21083;-77
2022/01/21 06:10:10;;;;;;;12.20;6.40;;;;;;;-7.62;78.66;97717.66;1702490;83;21024;-77
2022/01/21 06:12:38;;;;;;;21.65;7.37;;;;;;;-7.57;78.40;97717.82;1694361;84;21407;-77
2022/01/21 06:15:05;;;;;;;19.25;7.50;;;;;;;-7.53;78.20;97721.41;1692128;84;21088;-77
2022/01/21 06:17:32;;;;;;;13.78;6.65;;;;;;;-7.53;76.70;97716.27;1700246;84;21087;-77
2022/01/21 06:19:59;;;;;;;15.40;7.45;;;;;;;-7.52;76.86;97720.16;1710441;83;21028;-78
2022/01/21 06:22:26;;;;;;;14.50;6.87;;;;;;;-7.49;77.53;97714.24;1709679;83;21560;-77
2022/01/21 06:24:53;;;;;;;19.90;6.95;;;;;;;-7.47;77.71;97712.63;1704653;83;21013;-77
2022/01/21 06:27:26;;;;;;;16.02;7.42;;;;;;;-7.44;77.98;97716.58;1701866;83;21094;-77
2022/01/21 06:29:48;;;;;;;15.32;7.53;;;;;;;-7.37;78.19;97717.28;1672216;84;21081;-77
2022/01/21 06:32:14;;;;;;;16.35;7.80;;;;;;;-7.32;78.08;97725.16;1676176;84;20985;-78
2022/01/21 06:34:41;;;;;;;17.55;7.45;;;;;;;-7.29;77.45;97725.29;1698486;84;21537;-77
2022/01/21 06:37:07;;;;;;;16.97;8.00;;;;;;;-7.23;77.40;97725.94;1711101;83;21029;-77
2022/01/21 06:39:34;;;;;;;18.67;8.63;;;;;;;-7.20;77.18;97736.33;1735702;83;21036;-76
2022/01/21 06:42:01;;;;;;;16.60;7.87;;;;;;;-7.17;76.63;97731.30;1723702;83;21356;-76
2022/01/21 06:44:29;;;;;;;18.65;7.92;;;;;;;-7.09;76.49;97733.75;1730201;83;21064;-76
2022/01/21 06:46:55;;;;;;;19.85;7.87;;;;;;;-7.02;76.54;97727.98;1700851;83;21037;-75
2022/01/21 06:49:22;;;;;;;14.13;6.92;;;;;;;-6.95;77.02;97718.78;1701256;84;21066;-76
2022/01/21 06:51:48;;;;;;;12.78;5.47;;;;;;;-6.79;76.82;97729.22;1700898;83;21032;-76
2022/01/21 06:54:14;;;;;;;17.95;7.40;;;;;;;-6.70;74.21;97727.76;1677159;84;20989;-76
2022/01/21 06:56:41;;;;;;;16.25;6.55;;;;;;;-6.58;76.32;97733.34;1686262;84;21438;-76
2022/01/21 06:59:07;;;;;;;12.78;5.67;;;;;;;-6.48;76.51;97724.20;1704703;83;21008;-77
2022/01/21 07:01:34;;;;;;;10.48;5.37;;;;;;;-6.34;76.62;97734.11;1701002;83;21035;-76
2022/01/21 07:04:01;;;;;;;12.03;5.37;;;;;;;-6.27;75.43;97734.80;1713241;83;20997;-75
2022/01/21 07:06:27;;;;;;;12.13;5.72;;;;;;;-6.23;74.43;97736.22;1701794;83;21062;-75
2022/01/21 07:08:54;;;;;;;15.60;6.40;;;;;;;-6.18;74.89;97731.23;1699647;84;21010;-74
2022/01/21 07:11:21;;;;;;;13.62;6.25;;;;;;;-6.16;75.07;97727.38;1713598;83;21043;-74
2022/01/21 07:13:47;;;;;;;13.53;6.37;;;;;;;-6.15;74.25;97727.44;1715686;83;20988;-74
2022/01/21 07:16:14;;;;;;;18.32;7.67;;;;;;;-6.11;75.02;97733.16;1707711;83;21359;-74
2022/01/21 07:18:40;;;;;;;12.33;6.25;;;;;;;-6.10;72.89;97730.19;1706687;83;20989;-74
2022/01/21 07:21:07;;;;;;;18.62;7.53;;;;;;;-6.15;71.19;97718.84;1714732;83;21008;-75
2022/01/21 07:23:33;;;;;;;15.30;8.23;;;;;;;-6.19;72.20;97719.56;1706790;83;21407;-74
2022/01/21 07:26:00;;;;;;;19.55;8.93;;;;;;;-6.23;71.78;97719.45;1710517;83;21000;-74
2022/01/21 07:28:26;;;;;;;22.80;10.50;;;;;;;-6.26;72.29;97724.53;1706399;83;21108;-74
2022/01/21 07:30:52;;;;;;;25.23;11.73;;;;;;;-6.29;72.43;97724.82;1705569;83;21032;-74
2022/01/21 07:33:20;;;;;;;28.27;13.22;;;;;;;-6.34;72.34;97727.27;1709269;83;20985;-74
2022/01/21 07:35:47;;;;;;;31.93;14.33;;;;;;;-6.34;72.80;97732.83;1699677;83;21526;-74
2022/01/21 07:38:13;;;;;;;33.53;15.05;;;;;;;-6.36;73.01;97731.08;1706325;84;20994;-74
2022/01/21 07:40:41;;;;;;;32.85;15.78;;;;;;;-6.34;73.01;97731.53;1706294;84;21437;-74
2022/01/21 07:43:08;;;;;;;40.83;16.48;;;;;;;-6.33;73.29;97731.59;1706219;84;21049;-73
2022/01/21 07:45:35;;;;;;;39.25;16.82;;;;;;;-6.32;73.85;97734.63;1706489;83;21038;-73
2022/01/21 07:48:02;;;;;;;36.65;15.98;;;;;;;-6.27;74.04;97739.52;1670542;86;21047;-73
2022/01/21 07:50:28;;;;;;;35.88;16.25;;;;;;;-6.19;74.44;97737.63;1670355;86;21032;-73
2022/01/21 07:52:55;;;;;;;42.50;16.75;;;;;;;-6.12;74.54;97742.14;1670684;86;21023;-73
2022/01/21 07:55:21;;;;;;;47.43;21.00;;;;;;;-6.01;74.62;97744.64;1670545;86;21040;-73
2022/01/21 07:57:48;;;;;;;42.35;18.77;;;;;;;-5.96;74.36;97746.06;1725274;83;20989;-74
2022/01/21 08:00:15;;;;;;;46.37;17.65;;;;;;;-5.88;74.48;97752.36;1730855;83;21025;-75
2022/01/21 08:02:41;;;;;;;45.00;17.90;;;;;;;-5.78;74.17;97764.27;1726625;83;21004;-74
2022/01/21 08:05:08;;;;;;;45.00;18.87;;;;;;;-5.72;74.05;97763.16;1668545;85;21009;-74
2022/01/21 08:07:35;;;;;;;44.70;19.30;;;;;;;-5.63;74.33;97754.81;1684525;84;21034;-74
2022/01/21 08:10:03;;;;;;;37.53;17.60;;;;;;;-5.49;74.32;97756.11;1688911;85;21074;-75
2022/01/21 08:12:30;;;;;;;36.80;15.83;;;;;;;-5.36;74.14;97748.31;1688786;85;21039;-74
2022/01/21 08:14:56;;;;;;;35.80;14.95;;;;;;;-5.21;73.81;97751.77;1695507;84;21041;-75
2022/01/21 08:17:23;;;;;;;27.37;13.03;;;;;;;-5.03;74.35;97750.53;1677984;83;20974;-74
2022/01/21 08:19:49;;;;;;;22.55;10.35;;;;;;;-4.85;72.46;97749.30;1673091;84;21379;-76
2022/01/21 08:22:15;;;;;;;29.07;14.10;;;;;;;-4.70;72.84;97751.45;1680297;85;21012;-77
2022/01/21 08:24:42;;;;;;;20.15;9.63;;;;;;;-4.53;72.59;97756.63;1685117;84;21050;-74
2022/01/21 08:27:08;;;;;;;25.97;8.58;;;;;;;-4.35;71.34;97752.80;1681259;84;20963;-76
2022/01/21 08:29:35;;;;;;;14.07;6.53;;;;;;;-4.20;71.63;97750.14;1693301;84;21002;-76
2022/01/21 08:32:02;;;;;;;18.77;6.90;;;;;;;-4.02;71.08;97756.19;1707784;83;21016;-75
2022/01/21 08:34:29;;;;;;;14.33;6.70;;;;;;;-3.85;71.79;97753.56;1701908;83;21006;-81
2022/01/21 08:36:55;;;;;;;14.15;6.97;;;;;;;-3.67;71.90;97744.48;1707645;83;21091;-76
2022/01/21 08:39:22;;;;;;;13.08;6.22;;;;;;;-3.50;71.14;97747.87;1688480;84;21369;-77
2022/01/21 08:41:48;;;;;;;14.73;6.37;;;;;;;-3.34;71.49;97755.56;1688765;85;21013;-76
2022/01/21 08:44:16;;;;;;;15.28;7.22;;;;;;;-3.15;71.50;97759.86;1692906;84;21030;-78
2022/01/21 08:46:43;;;;;;;19.12;6.78;;;;;;;-3.03;71.77;97759.24;1707627;84;21518;-76
2022/01/21 08:49:09;;;;;;;16.15;6.80;;;;;;;-2.89;71.10;97761.70;1707953;84;20986;-78
2022/01/21 08:51:47;;;;;;;16.95;6.70;;;;;;;-2.70;71.28;97759.03;1707641;84;21019;-77
2022/01/21 08:54:05;;;;;;;16.32;8.63;;;;;;;-2.54;71.95;97760.21;1691175;84;21039;-78
2022/01/21 08:56:31;;;;;;;15.48;6.80;;;;;;;-2.36;71.18;97760.52;1707964;84;20999;-77
2022/01/21 08:58:58;;;;;;;10.13;4.70;;;;;;;-2.24;71.58;97766.36;1689019;83;21074;-77
2022/01/21 09:01:24;;;;;;;11.50;4.35;;;;;;;-2.23;68.45;97773.30;1685433;84;21436;-77
2022/01/21 09:03:51;;;;;;;10.18;4.83;;;;;;;-2.15;70.04;97771.27;1697967;84;21033;-77
2022/01/21 09:06:19;;;;;;;9.73;4.10;;;;;;;-2.04;70.49;97771.91;1686489;84;21023;-77
2022/01/21 09:08:46;;;;;;;10.93;4.10;;;;;;;-1.98;66.78;97755.13;1696430;84;21047;-77
2022/01/21 09:11:13;;;;;;;6.00;3.52;;;;;;;-1.86;69.72;97758.35;1703557;83;21089;-77
2022/01/21 09:13:41;;;;;;;10.50;5.37;;;;;;;-1.87;67.02;97754.02;1696858;83;21158;-78
2022/01/21 09:16:10;;;;;;;9.58;5.45;;;;;;;-1.81;67.43;97754.10;1691764;84;21064;-76
2022/01/21 09:18:50;;;;;;;13.50;5.35;;;;;;;-1.66;68.80;97757.79;1691754;84;21038;-76
2022/01/21 09:21:19;;;;;;;21.00;8.58;;;;;;;-1.65;66.11;97764.73;1681780;84;21002;-76
2022/01/21 09:23:49;;;;;;;10.30;3.87;;;;;;;-1.62;67.92;97759.59;1692611;84;21455;-78
2022/01/21 09:26:17;;;;;;;6.78;3.30;;;;;;;-1.58;64.91;97756.61;1692261;84;21013;-79
2022/01/21 09:28:45;;;;;;;9.68;3.27;;;;;;;-1.52;66.51;97743.28;1693098;84;21372;-77
2022/01/21 09:31:12;;;;;;;6.35;3.12;;;;;;;-1.59;65.99;97738.83;1692086;84;21463;-76
2022/01/21 09:33:40;;;;;;;6.17;3.33;;;;;;;-1.67;65.71;97730.06;1697455;83;21130;-76
2022/01/21 09:36:09;;;;;;;5.47;2.72;;;;;;;-1.80;65.79;97735.06;1703926;84;21133;-76
2022/01/21 09:38:36;;;;;;;7.70;2.85;;;;;;;-1.76;66.34;97738.57;1683232;84;21102;-77
2022/01/21 09:41:04;;;;;;;5.85;3.00;;;;;;;-1.80;66.19;97737.66;1684840;85;21128;-77
2022/01/21 09:43:33;;;;;;;6.42;2.58;;;;;;;-1.84;66.08;97736.30;1664310;85;21041;-77
2022/01/21 09:46:05;;;;;;;7.45;3.30;;;;;;;-1.82;66.90;97739.38;1623308;88;21110;-77
2022/01/21 09:48:35;;;;;;;9.23;4.55;;;;;;;-1.83;67.09;97728.50;1640179;86;21392;-77
2022/01/21 09:51:00;;;;;;;13.13;5.08;;;;;;;-1.87;67.42;97731.48;1634233;88;21082;-78
2022/01/21 09:53:34;;;;;;;8.83;4.83;;;;;;;-1.92;67.20;97732.25;1634928;86;21053;-78
2022/01/21 09:56:04;;;;;;;8.65;3.75;;;;;;;-1.93;67.75;97726.20;1643038;86;21637;-77
2022/01/21 09:58:32;;;;;;;7.78;3.92;;;;;;;-1.91;67.12;97732.28;1634930;88;21093;-75
2022/01/21 10:01:05;;;;;;;7.95;3.72;;;;;;;-1.90;66.71;97735.77;1659809;86;21072;-77
2022/01/21 10:03:34;;;;;;;6.15;3.35;;;;;;;-1.92;66.77;97736.15;1643475;86;21491;-77
2022/01/21 10:06:03;;;;;;;7.05;3.87;;;;;;;-1.71;67.67;97737.36;1678711;85;21060;-76
2022/01/21 10:08:31;;;;;;;5.42;3.25;;;;;;;-1.50;67.06;97730.31;1678804;85;21065;-76
2022/01/21 10:10:58;;;;;;;5.83;3.17;;;;;;;-1.45;66.64;97726.05;1678762;85;21028;-76
2022/01/21 10:13:26;;;;;;;6.55;3.62;;;;;;;-1.50;65.93;97732.91;1680737;85;21049;-76
2022/01/21 10:15:52;;;;;;;6.90;3.10;;;;;;;-1.51;65.95;97731.14;1680929;85;21127;-76
2022/01/21 10:18:22;;;;;;;6.62;3.37;;;;;;;-1.52;66.51;97730.28;1683628;84;21060;-76
2022/01/21 10:21:11;;;;;;;8.05;3.72;;;;;;;-1.49;66.70;97735.95;1683965;85;21064;-76
2022/01/21 10:23:40;;;;;;;9.25;3.60;;;;;;;-1.61;65.67;97736.64;1703402;84;21057;-76
2022/01/21 10:26:11;;;;;;;6.12;3.42;;;;;;;-1.70;65.50;97742.59;1712320;84;21017;-77
2022/01/21 10:28:40;;;;;;;5.03;3.10;;;;;;;-1.76;66.07;97737.27;1693536;84;21010;-76
2022/01/21 10:31:18;;;;;;;6.90;3.27;;;;;;;-1.78;66.50;97738.54;1712359;83;21410;-77
2022/01/21 10:33:49;;;;;;;10.55;4.22;;;;;;;-1.81;65.96;97733.73;1687046;84;21115;-76
2022/01/21 10:36:27;;;;;;;4.97;2.77;;;;;;;-1.73;66.46;97734.28;1696066;85;21029;-76
2022/01/21 10:39:07;;;;;;;9.28;2.75;;;;;;;-1.58;66.67;97730.17;1695937;85;21030;-75
2022/01/21 10:41:34;;;;;;;7.35;3.22;;;;;;;-1.51;64.72;97728.13;1709749;83;21435;-75
2022/01/21 10:44:12;;;;;;;6.42;2.95;;;;;;;-1.46;64.54;97739.88;1671927;86;21072;-75
2022/01/21 10:46:43;;;;;;;5.45;3.02;;;;;;;-1.41;65.75;97734.31;1671727;86;21020;-75
2022/01/21 10:49:12;;;;;;;4.33;2.20;;;;;;;-1.29;65.10;97725.81;1700030;84;21454;-76
2022/01/21 10:51:43;;;;;;;5.60;2.85;;;;;;;-1.28;63.99;97743.19;1692824;84;21011;-76
2022/01/21 10:54:26;;;;;;;7.75;3.00;;;;;;;-1.22;63.49;97739.36;1695251;84;21046;-75
2022/01/21 10:57:14;;;;;;;4.40;2.85;;;;;;;-1.26;63.09;97739.28;1696119;85;21014;-75
2022/01/21 11:00:10;;;;;;;6.83;2.90;;;;;;;-1.16;64.49;97726.84;1696148;85;21062;-74
2022/01/21 11:02:50;;;;;;;4.08;2.40;;;;;;;-0.94;63.98;97728.42;1703932;83;20979;-76
2022/01/21 11:05:18;;;;;;;7.00;2.90;;;;;;;-0.88;63.97;97729.80;1697291;84;21042;-75
2022/01/21 11:07:54;;;;;;;9.13;2.90;;;;;;;-0.67;64.85;97737.39;1702999;83;21005;-75
2022/01/21 11:10:40;;;;;;;9.38;3.60;;;;;;;-0.21;64.52;97730.93;1672072;86;21049;-75
2022/01/21 11:13:20;;;;;;;9.13;3.50;;;;;;;-0.14;64.13;97727.50;1658624;86;21014;-75
2022/01/21 11:16:20;;;;;;;6.12;2.98;;;;;;;-0.28;60.00;97727.39;1648210;85;21084;-76
2022/01/21 11:18:56;;;;;;;7.17;2.98;;;;;;;-0.27;62.43;97729.13;1695900;83;21010;-76
2022/01/21 11:21:27;;;;;;;5.95;2.90;;;;;;;-0.28;61.39;97726.09;1704127;83;21056;-76
2022/01/21 11:24:04;;;;;;;7.15;2.70;;;;;;;-0.27;62.22;97727.83;1702462;83;20961;-76
2022/01/21 11:26:31;;;;;;;17.32;3.10;;;;;;;-0.23;62.03;97744.34;1698092;83;21032;-76
2022/01/21 11:28:57;;;;;;;5.78;2.90;;;;;;;-0.45;60.21;97735.89;1703182;83;21059;-76
2022/01/21 11:31:28;;;;;;;9.85;3.20;;;;;;;-0.45;62.12;97745.00;1703991;83;21073;-76
2022/01/21 11:33:55;;;;;;;7.40;3.02;;;;;;;-0.59;61.91;97741.38;1702419;83;21049;-76
2022/01/21 11:36:21;;;;;;;8.40;3.50;;;;;;;-0.74;62.99;97738.19;1706630;83;21068;-76
2022/01/21 11:38:53;;;;;;;4.80;2.47;;;;;;;-0.81;62.79;97737.25;1678123;84;21035;-76
2022/01/21 11:41:17;;;;;;;5.05;2.40;;;;;;;-0.70;63.35;97736.93;1675008;85;21052;-76
2022/01/21 11:43:52;;;;;;;6.62;2.95;;;;;;;-0.52;62.88;97729.30;1658003;84;20957;-76
2022/01/21 11:46:26;;;;;;;8.88;2.70;;;;;;;-0.37;63.17;97737.72;1676299;84;21017;-76
2022/01/21 11:48:54;;;;;;;7.92;2.62;;;;;;;-0.38;62.47;97739.88;1684186;84;21016;-76
2022/01/21 11:51:35;;;;;;;6.08;3.45;;;;;;;-0.38;61.94;97751.59;1662962;86;21028;-76
2022/01/21 11:54:13;;;;;;;7.53;3.40;;;;;;;-0.54;61.20;97731.47;1671124;85;21155;-75
2022/01/21 11:56:48;;;;;;;7.03;3.00;;;;;;;-0.67;61.67;97742.18;1662926;86;21002;-75
2022/01/21 11:59:53;;;;;;;7.55;3.00;;;;;;;-0.53;60.78;97738.86;1680705;84;21405;-76
2022/01/21 12:02:21;;;;;;;6.65;3.00;;;;;;;-0.65;61.29;97719.20;1664308;85;21513;-75
2022/01/21 12:05:01;;;;;;;7.90;3.00;;;;;;;-0.71;62.21;97728.69;1659855;86;21019;-76
2022/01/21 12:07:48;;;;;;;4.60;2.80;;;;;;;-0.82;62.34;97723.34;1659734;86;21004;-75
2022/01/21 12:10:25;;;;;;;11.68;3.75;;;;;;;-0.90;62.35;97721.11;1662330;85;21029;-75
2022/01/21 12:13:03;;;;;;;6.28;3.20;;;;;;;-0.97;60.89;97733.58;1682606;84;21766;-75
2022/01/21 12:15:48;;;;;;;6.87;2.90;;;;;;;-1.18;60.88;97732.88;1681272;85;21065;-75
2022/01/21 12:20:59;;;;;;;5.62;2.75;;;;;;;-1.26;62.33;97724.56;1656229;85;21065;-78
2022/01/21 12:23:29;;;;;;;7.15;3.20;;;;;;;-1.29;62.42;97719.75;1656095;85;21045;-77
2022/01/21 12:26:18;;;;;;;5.12;2.90;;;;;;;-1.30;61.92;97722.77;1674532;85;21049;-77
2022/01/21 12:28:59;;;;;;;5.25;2.60;;;;;;;-1.24;62.42;97721.55;1680635;85;20991;-78